LLET/ETH METAR and TAF weather

Enter ICAO airport designator
Station Type Date Time Source
LLET METAR 2018/12/15 20:50 UTC NOAA

LLET 152050Z 02008KT 350V050 CAVOK 18/08 Q1017


Station Type Date Time Source
LLET Decoded METAR 2018/12/15 20:50 UTC NOAA

Eilat, Israel (LLET) 29-33N 034-57E 12M
Dec 15, 2018 - 03:50 PM EST / 2018.12.15 2050 UTC
Wind: from the NNE (020 degrees) at 9 MPH (8 KT) (direction variable):0
Visibility: greater than 7 mile(s):0
Temperature: 64 F (18 C)
Dew Point: 46 F (8 C)
Relative Humidity: 51%
Pressure (altimeter): 30.03 in. Hg (1017 hPa)
ob: LLET 152050Z 02008KT 350V050 CAVOK 18/08 Q1017
cycle: 21

Station Type Date Time Source
LLET TAF 2018/12/15 18:07 UTC NOAA

TAF LLET 151703Z 1518/1618 02010KT CAVOK PROB40 1610/1612 16004KT 9999 SCT045 TX26/1612Z TN15/1604Z


Example: see airport list